Flight Track Log - Related Links

Times and Time Zones

All times are in EDT time to prevent confusion due to time zone crossing. See the SWA2894 flight status page for this flight to view local times or setup timezone preferences in your user account.

Time Position Orientation Groundspeed Altitude Reporting Facility
EDT Latitude Longitude Course Direction KTS MPH feet Rate Location/Type
Fri 02:05:40 PM 33.9167 -118.4667 90° East 197 227 2,500  Level Southern California TRACON
Fri 02:06:27 PM 33.8703 -118.5097 218° Southwest 251 289 4,700 2,642 Climbing Los Angeles Center
Fri 02:07:29 PM 33.7997 -118.5153 184° South 276 318 7,300 2,855 Climbing Los Angeles Center
Fri 02:08:31 PM 33.7192 -118.5025 172° South 308 354 10,600 3,216 Climbing Los Angeles Center
Fri 02:09:34 PM 33.6617 -118.3853 120° Southeast 351 404 14,000 3,168 Climbing Los Angeles Center
Fri 02:10:36 PM 33.6392 -118.2678 103° East 372 428 17,200 2,758 Climbing Los Angeles Center
Fri 02:11:00 PM 33.6333 -118.3162 90° East  Level FlightAware Approximate
Fri 02:11:38 PM 33.6281 -118.1411 96° East 386 444 19,700  Level Los Angeles Center
Fri 02:12:40 PM 33.6136 -118.0019 97° East 417 480 22,300 2,565 Climbing Los Angeles Center
Fri 02:13:42 PM 33.5958 -117.8294 97° East 435 501 25,000 2,419 Climbing Los Angeles Center
Fri 02:14:44 PM 33.5800 -117.6775 97° East 457 526 27,300 1,984 Climbing Los Angeles Center
Fri 02:15:46 PM 33.5644 -117.5200 97° East 475 547 29,100 1,742 Climbing Los Angeles Center
Fri 02:16:48 PM 33.5464 -117.3581 98° East 489 563 30,900 1,742 Climbing Los Angeles Center
Fri 02:17:50 PM 33.5272 -117.1903 98° East 505 581 32,700 2,129 Climbing Los Angeles Center
Fri 02:18:52 PM 33.5078 -116.9939 97° East 502 578 35,300 2,064 Climbing Los Angeles Center
Fri 02:19:55 PM 33.4892 -116.8294 98° East 498 573 37,000 1,584 Climbing Los Angeles Center
Fri 02:20:57 PM 33.4733 -116.6667 97° East 494 568 38,600 968 Climbing Los Angeles Center
Fri 02:21:59 PM 33.4542 -116.5050 98° East 489 563 39,000 194 Climbing Los Angeles Center
Fri 02:23:01 PM 33.4350 -116.3422 98° East 491 565 39,000  Level Los Angeles Center
Fri 02:24:03 PM 33.4158 -116.1781 98° East 495 570 39,000  Level Los Angeles Center
Fri 02:25:05 PM 33.3958 -116.0150 98° East 493 567 39,000  Level Los Angeles Center
Fri 02:26:07 PM 33.3728 -115.8197 98° East 492 566 39,000  Level Los Angeles Center
Fri 02:27:09 PM 33.3536 -115.6583 98° East 490 564 39,000  Level Los Angeles Center
Fri 02:28:12 PM 33.3328 -115.4983 99° East 488 562 39,000  Level Los Angeles Center
Fri 02:29:14 PM 33.3139 -115.3372 98° East 489 563 39,000  Level Los Angeles Center
Fri 02:30:16 PM 33.2936 -115.1756 98° East 492 566 39,000  Level Los Angeles Center
Fri 02:31:18 PM 33.2733 -115.0169 99° East 485 558 39,000  Level Los Angeles Center
Fri 02:32:20 PM 33.2489 -114.8264 99° East 483 556 39,000  Level Los Angeles Center
Fri 02:33:22 PM 33.2272 -114.6669 99° East 486 559 39,000  Level Los Angeles Center
Fri 02:34:24 PM 33.2072 -114.5069 98° East 487 560 39,000  Level Los Angeles Center
Fri 02:35:26 PM 33.1858 -114.3481 99° East 487 560 39,000  Level Los Angeles Center
Fri 02:36:28 PM 33.1644 -114.1906 99° East 484 557 39,000  Level Los Angeles Center
Fri 02:37:31 PM 33.1442 -114.0317 99° East 485 558 39,000  Level Los Angeles Center
Fri 02:38:33 PM 33.1189 -113.8414 99° East 485 558 39,000 -290 Level Los Angeles Center
Fri 02:39:35 PM 33.0975 -113.6831 99° East 485 558 38,400 -726 Descending Los Angeles Center
Fri 02:40:37 PM 33.0761 -113.5242 99° East 486 559 37,500 -919 Descending Los Angeles Center
Fri 02:41:39 PM 33.0542 -113.3628 99° East 492 566 36,500 -1,016 Descending Los Angeles Center
Fri 02:42:41 PM 33.0292 -113.1778 99° East 498 573 35,400 -1,268 Descending Los Angeles Center
Fri 02:44:00 PM 32.9990 -113.0388 96° East  Level FlightAware Approximate
Fri 02:46:04 PM 32.9506 -112.6631 121° Southeast 484 557 30,900  Level Albuquerque Center
Fri 02:47:06 PM 32.8989 -112.5233 114° Southeast 461 531 28,800 -2,177 Descending Albuquerque Center
Fri 02:48:08 PM 32.8358 -112.3628 115° Southeast 451 519 26,400 -1,790 Descending Albuquerque Center
Fri 02:49:10 PM 32.7878 -112.2350 114° Southeast 439 505 25,100 -1,403 Descending Albuquerque Center
Fri 02:50:12 PM 32.7422 -112.1175 115° Southeast 411 473 23,500 -1,645 Descending Albuquerque Center
Fri 02:51:00 PM 32.7341 -112.1182 121° Southeast  Level FlightAware Approximate
Fri 02:51:14 PM 32.6975 -112.0025 115° Southeast 394 453 21,700  Level Albuquerque Center
Fri 02:52:16 PM 32.6519 -111.8858 115° Southeast 392 451 19,800 -1,805 Descending Albuquerque Center
Fri 02:53:17 PM 32.6086 -111.7747 115° Southeast 381 438 18,000 -1,965 Descending Albuquerque Center
Fri 02:54:09 PM 32.5589 -111.6553 116° Southeast 377 434 16,100 -2,034 Descending Albuquerque Center
Fri 02:55:15 PM 32.4983 -111.5500 124° Southeast 365 420 14,000 -1,465 Descending Albuquerque Center
Fri 02:56:16 PM 32.4461 -111.4553 123° Southeast 345 397 13,000 -1,091 Descending Albuquerque Center
Fri 02:57:16 PM 32.3967 -111.3650 123° Southeast 331 381 11,800 -1,099 Descending Albuquerque Center
Fri 02:58:27 PM 32.3506 -111.2797 123° Southeast 305 351 10,600 -1,313 Descending Albuquerque Center
Fri 02:59:24 PM 32.2986 -111.1894 124° Southeast 296 341 9,000 -1,258 Descending Albuquerque Center
Fri 03:00:31 PM 32.2617 -111.1097 119° Southeast 266 306 8,000 -1,200 Descending Albuquerque Center
Fri 03:01:19 PM 32.2297 -111.0669 131° Southeast 212 244 6,700 -1,541 Descending Albuquerque Center
Fri 03:02:20 PM 32.1919 -111.0267 138° Southeast 190 219 5,200 -1,488 Descending Albuquerque Center
Fri 03:03:20 PM 32.1561 -110.9861 136° Southeast 175 201 3,700 -1,240 Descending Albuquerque Center
Fri 03:04:21 PM 32.1258 -110.9514 136° Southeast 156 180 2,700 -984 Descending Albuquerque Center
Fri 03:06:00 PM 32.1161 -110.9410 128° Southeast  Level Estimated

Login

Don't have an account? Register now (free) for customized features, flight alerts, and more!